Time;durP1;ratioP1;P1;durP2;ratioP2;P2;SDS_P1;SDS_P2;PMS_P1;PMS_P2;Temp;Humidity;BMP_temperature;BMP_pressure;BME280_temperature;BME280_humidity;BME280_pressure;Samples;Min_cycle;Max_cycle;Signal;HPM_P1;HPM_P2
2023/04/25 00:01:08;;;;;;;31.40;21.67;;;11.10;99.90;;;;;;4146164;28;20029;-75
2023/04/25 00:03:09;;;;;;;29.93;20.97;;;11.00;99.90;;;;;;4146744;28;20030;-74
2023/04/25 00:05:11;;;;;;;30.00;22.87;;;11.00;99.90;;;;;;4145931;28;20033;-75
2023/04/25 00:07:12;;;;;;;30.37;21.33;;;10.90;99.90;;;;;;4150561;28;20041;-61
2023/04/25 00:09:13;;;;;;;33.73;23.60;;;10.90;99.90;;;;;;4161965;28;20489;-63
2023/04/25 00:11:14;;;;;;;33.67;24.77;;;10.90;99.90;;;;;;4160342;28;20386;-75
2023/04/25 00:13:17;;;;;;;33.63;23.33;;;10.80;99.90;;;;;;4154489;28;20359;-75
2023/04/25 00:15:18;;;;;;;35.80;24.53;;;10.80;99.90;;;;;;4136216;28;20053;-71
2023/04/25 00:17:19;;;;;;;33.23;24.00;;;10.80;99.90;;;;;;4162002;28;20537;-74
2023/04/25 00:19:20;;;;;;;30.17;22.30;;;10.80;99.90;;;;;;4163040;28;20790;-75
2023/04/25 00:21:24;;;;;;;32.57;23.33;;;10.80;99.90;;;;;;4130105;28;20042;-75
2023/04/25 00:23:26;;;;;;;29.57;21.90;;;10.80;99.90;;;;;;4129117;28;20515;-73
2023/04/25 00:25:27;;;;;;;33.93;23.53;;;10.70;99.90;;;;;;4145767;28;20466;-73
2023/04/25 00:27:28;;;;;;;32.10;23.80;;;10.70;99.90;;;;;;4145627;28;20041;-73
2023/04/25 00:29:29;;;;;;;33.03;24.73;;;10.70;99.90;;;;;;4145817;28;20038;-73
2023/04/25 00:31:31;;;;;;;34.67;24.40;;;10.70;99.90;;;;;;4154915;28;20367;-75
2023/04/25 00:33:32;;;;;;;33.60;23.43;;;10.60;99.90;;;;;;4162496;28;20034;-74
2023/04/25 00:35:34;;;;;;;32.73;23.60;;;10.60;99.90;;;;;;4161565;28;20156;-67
2023/04/25 00:37:35;;;;;;;37.07;24.27;;;10.60;99.90;;;;;;4163046;28;20037;-75
2023/04/25 00:39:36;;;;;;;32.90;23.57;;;10.60;99.90;;;;;;4151595;28;20112;-75
2023/04/25 00:41:39;;;;;;;32.87;23.67;;;10.60;99.90;;;;;;4155802;28;20033;-74
2023/04/25 00:43:41;;;;;;;33.80;23.73;;;10.50;99.90;;;;;;4160782;28;20501;-73
2023/04/25 00:45:43;;;;;;;37.10;25.10;;;10.50;99.90;;;;;;4161673;28;20091;-74
2023/04/25 00:47:45;;;;;;;34.30;23.97;;;10.50;99.90;;;;;;4160561;28;20038;-74
2023/04/25 00:49:46;;;;;;;36.20;23.70;;;10.50;99.90;;;;;;4162861;28;20079;-70
2023/04/25 00:51:47;;;;;;;31.80;22.00;;;10.50;99.90;;;;;;4161205;28;20501;-74
2023/04/25 00:53:50;;;;;;;33.87;22.90;;;10.50;99.90;;;;;;4162785;28;20029;-67
2023/04/25 00:55:51;;;;;;;32.37;23.80;;;10.50;99.90;;;;;;4160695;28;20033;-75
2023/04/25 00:57:53;;;;;;;32.93;23.77;;;10.50;99.90;;;;;;4160710;28;20022;-71
2023/04/25 00:59:54;;;;;;;38.30;24.97;;;10.50;99.90;;;;;;4146864;28;20010;-76
2023/04/25 01:01:56;;;;;;;32.83;24.10;;;10.50;99.90;;;;;;4153083;28;20494;-73
2023/04/25 01:03:59;;;;;;;35.70;22.67;;;10.50;99.90;;;;;;4161895;28;20064;-75
2023/04/25 01:06:01;;;;;;;32.27;23.37;;;10.50;99.90;;;;;;4161370;28;20718;-76
2023/04/25 01:08:02;;;;;;;30.83;22.50;;;10.50;99.90;;;;;;4162399;28;20115;-74
2023/04/25 01:10:05;;;;;;;34.17;23.70;;;10.50;99.90;;;;;;4160991;28;20075;-75
2023/04/25 01:12:07;;;;;;;32.03;22.70;;;10.50;99.90;;;;;;4162524;28;20079;-74
2023/04/25 01:14:08;;;;;;;36.93;24.93;;;10.50;99.90;;;;;;4150040;28;20038;-70
2023/04/25 01:16:09;;;;;;;30.87;22.57;;;10.50;99.90;;;;;;4160600;28;20107;-74
2023/04/25 01:18:11;;;;;;;32.17;23.07;;;10.50;99.90;;;;;;4160644;28;20099;-75
2023/04/25 01:20:13;;;;;;;29.23;22.17;;;10.50;99.90;;;;;;4162006;28;20033;-75
2023/04/25 01:22:15;;;;;;;34.23;23.27;;;10.40;99.90;;;;;;4160445;28;20033;-74
2023/04/25 01:24:17;;;;;;;32.20;22.90;;;10.50;99.90;;;;;;4147573;28;20103;-74
2023/04/25 01:26:18;;;;;;;37.60;24.43;;;10.50;99.90;;;;;;4145513;28;20049;-73
2023/04/25 01:28:20;;;;;;;31.57;23.60;;;10.50;99.90;;;;;;4161805;28;20079;-73
2023/04/25 01:30:21;;;;;;;31.37;22.13;;;10.40;99.90;;;;;;4157248;28;20037;-68
2023/04/25 01:32:26;;;;;;;30.90;22.53;;;10.40;99.90;;;;;;4145471;28;20038;-74
2023/04/25 01:34:27;;;;;;;29.37;21.97;;;10.40;99.90;;;;;;4145016;28;20018;-74
2023/04/25 01:36:28;;;;;;;28.90;21.47;;;10.40;99.90;;;;;;4161337;28;20095;-72
2023/04/25 01:38:30;;;;;;;31.73;22.00;;;10.40;99.90;;;;;;4162095;28;20068;-74
2023/04/25 01:40:34;;;;;;;28.63;20.80;;;10.40;99.90;;;;;;4160821;28;20437;-74
2023/04/25 01:42:37;;;;;;;29.17;20.70;;;10.30;99.90;;;;;;4151095;28;20064;-74
2023/04/25 01:44:39;;;;;;;30.07;21.13;;;10.40;99.90;;;;;;4150692;28;20441;-73
2023/04/25 01:46:40;;;;;;;28.90;21.33;;;10.30;99.90;;;;;;4150546;28;20030;-75
2023/04/25 01:48:42;;;;;;;30.43;20.50;;;10.40;99.90;;;;;;4144462;28;20029;-75
2023/04/25 01:50:45;;;;;;;26.80;20.40;;;10.40;99.90;;;;;;4145665;28;20781;-71
2023/04/25 01:52:46;;;;;;;30.47;20.90;;;10.40;99.90;;;;;;4144452;28;20034;-73
2023/04/25 01:54:48;;;;;;;27.90;20.00;;;10.40;99.90;;;;;;4147501;28;20116;-70
2023/04/25 01:56:52;;;;;;;28.27;20.37;;;10.40;99.90;;;;;;4160832;28;20095;-77
2023/04/25 01:58:54;;;;;;;27.77;19.33;;;10.40;99.90;;;;;;4153923;28;20038;-71
2023/04/25 02:00:55;;;;;;;26.00;19.43;;;10.30;99.90;;;;;;4143610;28;20651;-71
2023/04/25 02:02:59;;;;;;;23.97;18.57;;;10.30;99.90;;;;;;4147522;28;20034;-75
2023/04/25 02:05:01;;;;;;;27.10;19.30;;;10.30;99.90;;;;;;4144344;28;20128;-74
2023/04/25 02:07:03;;;;;;;27.70;19.07;;;10.30;99.90;;;;;;4159587;28;20115;-76
2023/04/25 02:09:04;;;;;;;25.77;18.90;;;10.30;99.90;;;;;;4162915;28;20042;-76
2023/04/25 02:11:05;;;;;;;24.13;18.13;;;10.30;99.90;;;;;;4164552;28;20091;-75
2023/04/25 02:13:06;;;;;;;27.97;18.93;;;10.30;99.90;;;;;;4164425;28;20553;-73
2023/04/25 02:15:08;;;;;;;24.07;18.10;;;10.30;99.90;;;;;;4160404;28;20424;-74
2023/04/25 02:17:09;;;;;;;26.80;18.97;;;10.30;99.90;;;;;;4155923;28;20220;-75
2023/04/25 02:19:10;;;;;;;24.97;18.83;;;10.30;99.90;;;;;;4163899;28;20041;-76
2023/04/25 02:21:12;;;;;;;23.33;18.57;;;10.30;99.90;;;;;;4164789;28;20045;-76
2023/04/25 02:23:15;;;;;;;28.17;18.20;;;10.30;99.90;;;;;;4163139;28;20371;-68
2023/04/25 02:25:17;;;;;;;23.10;17.30;;;10.30;99.90;;;;;;4164275;28;20099;-74
2023/04/25 02:27:18;;;;;;;22.47;17.07;;;10.30;99.90;;;;;;4163384;28;20099;-76
2023/04/25 02:29:19;;;;;;;24.27;17.63;;;10.30;99.90;;;;;;4154367;28;20088;-72
2023/04/25 02:31:20;;;;;;;23.87;17.20;;;10.30;99.90;;;;;;4155432;28;20050;-75
2023/04/25 02:33:21;;;;;;;22.90;17.67;;;10.30;99.90;;;;;;4149934;28;20080;-76
2023/04/25 02:35:23;;;;;;;24.53;17.77;;;10.30;99.90;;;;;;4153806;28;20093;-76
2023/04/25 02:37:24;;;;;;;20.97;16.20;;;10.30;99.90;;;;;;4148426;28;20478;-76
2023/04/25 02:39:27;;;;;;;23.40;17.57;;;10.30;99.90;;;;;;4147235;28;20442;-76
2023/04/25 02:41:28;;;;;;;20.03;16.13;;;10.30;99.90;;;;;;4157562;28;20649;-78
2023/04/25 02:43:29;;;;;;;21.67;16.33;;;10.30;99.90;;;;;;4163485;28;20029;-73
2023/04/25 02:45:30;;;;;;;20.93;15.50;;;10.30;99.90;;;;;;4140395;28;20030;-71
2023/04/25 02:47:31;;;;;;;21.97;15.70;;;10.30;99.90;;;;;;4135534;28;20034;-74
2023/04/25 02:49:33;;;;;;;22.97;15.67;;;10.30;99.90;;;;;;4146277;28;20049;-72
2023/04/25 02:51:34;;;;;;;18.77;15.13;;;10.20;99.90;;;;;;4147380;28;20527;-75
2023/04/25 02:53:35;;;;;;;20.07;15.97;;;10.30;99.90;;;;;;4137842;28;20123;-75
2023/04/25 02:55:36;;;;;;;21.23;16.27;;;10.30;99.90;;;;;;4164477;28;20021;-75
2023/04/25 02:57:38;;;;;;;21.43;16.80;;;10.30;99.90;;;;;;4159517;28;20037;-72
2023/04/25 02:59:39;;;;;;;21.97;16.20;;;10.30;99.90;;;;;;4154987;28;20127;-73
2023/04/25 03:01:40;;;;;;;19.90;16.10;;;10.30;99.90;;;;;;4163327;28;20458;-69
2023/04/25 03:03:41;;;;;;;19.80;15.63;;;10.30;99.90;;;;;;4164170;28;20638;-64
2023/04/25 03:05:42;;;;;;;23.10;16.53;;;10.30;99.90;;;;;;4159981;28;20440;-72
2023/04/25 03:07:44;;;;;;;22.03;16.93;;;10.30;99.90;;;;;;4147884;28;20536;-74
2023/04/25 03:09:45;;;;;;;24.07;16.13;;;10.30;99.90;;;;;;4154828;28;20477;-75
2023/04/25 03:11:47;;;;;;;21.40;16.43;;;10.30;99.90;;;;;;4151479;28;20498;-63
2023/04/25 03:13:48;;;;;;;21.30;17.07;;;10.20;99.90;;;;;;4148351;28;20034;-73
2023/04/25 03:15:49;;;;;;;23.37;17.43;;;10.30;99.90;;;;;;4153946;28;20030;-64
2023/04/25 03:17:50;;;;;;;23.13;17.73;;;10.30;99.90;;;;;;4150623;28;20042;-73
2023/04/25 03:19:51;;;;;;;21.67;16.70;;;10.30;99.90;;;;;;4145951;28;20030;-73
2023/04/25 03:21:53;;;;;;;25.63;19.10;;;10.30;99.90;;;;;;4129721;28;20108;-73
2023/04/25 03:23:54;;;;;;;26.37;18.97;;;10.30;99.90;;;;;;4147609;28;20093;-75
2023/04/25 03:25:55;;;;;;;21.80;18.03;;;10.30;99.90;;;;;;4150635;28;20041;-64
2023/04/25 03:27:57;;;;;;;23.67;18.30;;;10.30;99.90;;;;;;4158243;28;20559;-70
2023/04/25 03:29:58;;;;;;;27.00;19.23;;;10.30;99.90;;;;;;4148326;28;20552;-74
2023/04/25 03:31:59;;;;;;;23.03;18.50;;;10.30;99.90;;;;;;4157166;28;20042;-74
2023/04/25 03:34:00;;;;;;;24.67;18.10;;;10.30;99.90;;;;;;4151641;28;20440;-74
2023/04/25 03:36:01;;;;;;;22.37;17.17;;;10.40;99.90;;;;;;4146324;28;20030;-74
2023/04/25 03:38:03;;;;;;;22.90;18.03;;;10.40;99.90;;;;;;4147343;28;20022;-72
2023/04/25 03:40:04;;;;;;;23.83;17.67;;;10.40;99.90;;;;;;4146179;28;20932;-73
2023/04/25 03:42:06;;;;;;;24.10;17.83;;;10.40;99.90;;;;;;4161781;28;20088;-70
2023/04/25 03:44:07;;;;;;;23.17;17.53;;;10.40;99.90;;;;;;4149422;28;20025;-69
2023/04/25 03:46:08;;;;;;;22.27;16.90;;;10.40;99.90;;;;;;4148959;28;20477;-71
2023/04/25 03:48:09;;;;;;;21.97;16.83;;;10.50;99.90;;;;;;4162070;28;20462;-74
2023/04/25 03:50:10;;;;;;;22.87;15.87;;;10.50;99.90;;;;;;4144682;28;20115;-74
2023/04/25 03:52:11;;;;;;;22.83;18.20;;;10.50;99.90;;;;;;4159634;28;20030;-76
2023/04/25 03:54:13;;;;;;;19.80;16.73;;;10.40;99.90;;;;;;4159924;28;20037;-75
2023/04/25 03:56:14;;;;;;;24.10;17.13;;;10.40;99.90;;;;;;4161596;28;20111;-72
2023/04/25 03:58:16;;;;;;;20.93;17.47;;;10.50;99.90;;;;;;4162246;28;20029;-72
2023/04/25 04:00:18;;;;;;;22.97;18.50;;;10.50;99.90;;;;;;4159440;28;20022;-65
2023/04/25 04:02:19;;;;;;;23.77;18.97;;;10.50;99.90;;;;;;4146811;28;20030;-75
2023/04/25 04:04:20;;;;;;;25.03;19.17;;;10.50;99.90;;;;;;4146064;28;20195;-71
2023/04/25 04:06:21;;;;;;;25.63;18.83;;;10.50;99.90;;;;;;4144909;28;20038;-74
2023/04/25 04:08:22;;;;;;;28.70;19.77;;;10.50;99.90;;;;;;4146865;28;20064;-75
2023/04/25 04:10:23;;;;;;;25.90;19.17;;;10.50;99.90;;;;;;4145825;28;20046;-75
2023/04/25 04:12:25;;;;;;;26.80;20.00;;;10.60;99.90;;;;;;4146309;28;20107;-66
2023/04/25 04:14:26;;;;;;;30.07;20.00;;;10.60;99.90;;;;;;4147020;28;20080;-69
2023/04/25 04:16:27;;;;;;;30.13;20.47;;;10.60;99.90;;;;;;4149128;28;20565;-71
2023/04/25 04:18:28;;;;;;;29.03;20.27;;;10.60;99.90;;;;;;4149908;28;20075;-72
2023/04/25 04:20:30;;;;;;;29.90;20.60;;;10.60;99.90;;;;;;4157922;28;20100;-71
2023/04/25 04:22:31;;;;;;;31.97;20.60;;;10.60;99.90;;;;;;4145692;28;20457;-71
2023/04/25 04:24:32;;;;;;;27.77;19.33;;;10.60;99.90;;;;;;4146304;28;20049;-72
2023/04/25 04:26:34;;;;;;;26.00;19.70;;;10.60;99.90;;;;;;4146411;28;20085;-70
2023/04/25 04:28:35;;;;;;;26.07;19.80;;;10.60;99.90;;;;;;4146067;28;20037;-73
2023/04/25 04:30:37;;;;;;;27.80;19.20;;;10.60;99.90;;;;;;4147390;28;20049;-70
2023/04/25 04:32:38;;;;;;;22.43;17.90;;;10.60;99.90;;;;;;4145289;28;20026;-77
2023/04/25 04:34:41;;;;;;;26.13;19.67;;;10.70;99.90;;;;;;4146388;28;20064;-77
2023/04/25 04:36:42;;;;;;;27.30;19.73;;;10.70;99.90;;;;;;4154176;28;20088;-77
2023/04/25 04:38:43;;;;;;;26.23;18.53;;;10.70;99.90;;;;;;4162765;28;20489;-74
2023/04/25 04:40:44;;;;;;;27.07;19.43;;;10.70;99.90;;;;;;4161362;28;20033;-73
2023/04/25 04:42:45;;;;;;;27.83;20.23;;;10.80;99.90;;;;;;4162210;28;20033;-77
2023/04/25 04:44:47;;;;;;;28.17;20.37;;;10.80;99.90;;;;;;4161093;28;20458;-72
2023/04/25 04:46:48;;;;;;;27.00;20.27;;;10.80;99.90;;;;;;4160101;28;20108;-77
2023/04/25 04:48:49;;;;;;;28.40;20.00;;;10.80;99.90;;;;;;4157138;28;20018;-73
2023/04/25 04:50:50;;;;;;;28.83;19.77;;;10.80;99.90;;;;;;4155867;28;20525;-78
2023/04/25 04:52:51;;;;;;;30.07;19.27;;;10.90;99.90;;;;;;4145990;28;20100;-75
2023/04/25 04:54:52;;;;;;;28.13;19.83;;;11.00;99.90;;;;;;4148228;28;20021;-73
2023/04/25 04:56:54;;;;;;;26.47;19.30;;;11.00;99.90;;;;;;4161089;28;20041;-76
2023/04/25 04:58:55;;;;;;;23.70;18.27;;;11.10;99.90;;;;;;4143352;28;20038;-72
2023/04/25 05:00:56;;;;;;;23.93;17.60;;;11.20;99.90;;;;;;4161171;28;20057;-72
2023/04/25 05:02:57;;;;;;;23.00;17.83;;;11.20;99.90;;;;;;4160792;28;20107;-74
2023/04/25 05:04:59;;;;;;;26.60;18.57;;;11.20;99.90;;;;;;4162378;28;20083;-68
2023/04/25 05:07:00;;;;;;;23.70;19.27;;;11.20;99.90;;;;;;4144508;28;20418;-71
2023/04/25 05:09:01;;;;;;;25.30;18.60;;;11.40;99.90;;;;;;4127476;28;20054;-72
2023/04/25 05:11:02;;;;;;;24.50;17.47;;;11.40;99.90;;;;;;4144417;28;20049;-73
2023/04/25 05:13:04;;;;;;;23.30;18.37;;;11.50;99.90;;;;;;4145579;28;20378;-72
2023/04/25 05:15:05;;;;;;;20.57;16.40;;;11.60;99.90;;;;;;4144709;28;20107;-73
2023/04/25 05:17:08;;;;;;;21.13;16.23;;;11.60;99.90;;;;;;4144947;28;20049;-74
2023/04/25 05:19:09;;;;;;;20.33;15.93;;;11.60;99.90;;;;;;4144835;28;20045;-71
2023/04/25 05:21:10;;;;;;;22.30;15.87;;;11.50;99.90;;;;;;4144365;28;20046;-72
2023/04/25 05:23:11;;;;;;;18.23;15.10;;;11.50;99.90;;;;;;4145354;28;20025;-72
2023/04/25 05:25:12;;;;;;;20.10;14.93;;;11.60;99.90;;;;;;4144594;28;20030;-70
2023/04/25 05:27:16;;;;;;;19.60;14.57;;;11.50;99.90;;;;;;4145140;28;20038;-71
2023/04/25 05:29:19;;;;;;;20.20;16.00;;;11.50;99.90;;;;;;4143923;28;20061;-64
2023/04/25 05:31:20;;;;;;;22.63;16.73;;;11.50;99.90;;;;;;4145242;28;20592;-73
2023/04/25 05:33:21;;;;;;;23.63;17.13;;;11.50;99.90;;;;;;4144467;28;20467;-72
2023/04/25 05:35:22;;;;;;;27.50;16.97;;;11.50;99.90;;;;;;4145593;28;20022;-72
2023/04/25 05:37:24;;;;;;;25.70;16.93;;;11.50;99.90;;;;;;4144456;28;20076;-72
2023/04/25 05:39:26;;;;;;;20.67;16.37;;;11.50;99.90;;;;;;4145355;28;20088;-73
2023/04/25 05:41:27;;;;;;;22.13;16.57;;;11.50;99.90;;;;;;4143588;28;20079;-70
2023/04/25 05:43:28;;;;;;;21.70;16.43;;;11.50;99.90;;;;;;4144675;28;20096;-72
2023/04/25 05:45:29;;;;;;;21.30;17.20;;;11.50;99.90;;;;;;4144374;28;20026;-65
2023/04/25 05:47:30;;;;;;;22.47;16.67;;;11.50;99.90;;;;;;4144692;28;20034;-71
2023/04/25 05:49:31;;;;;;;22.93;17.20;;;11.50;99.90;;;;;;4143579;28;20038;-72
2023/04/25 05:51:33;;;;;;;24.67;18.10;;;11.50;99.90;;;;;;4144417;28;20038;-73
2023/04/25 05:53:34;;;;;;;23.73;17.70;;;11.50;99.90;;;;;;4144469;28;20038;-62
2023/04/25 05:55:35;;;;;;;22.87;16.33;;;11.50;99.90;;;;;;4126397;28;20031;-63
2023/04/25 05:57:36;;;;;;;22.63;16.83;;;11.50;99.90;;;;;;4144684;28;20041;-69
2023/04/25 05:59:37;;;;;;;23.47;17.37;;;11.50;99.90;;;;;;4143008;28;20092;-72
2023/04/25 06:01:40;;;;;;;22.60;17.53;;;11.50;99.90;;;;;;4144855;28;20018;-71
2023/04/25 06:03:42;;;;;;;26.70;18.47;;;11.50;99.90;;;;;;4143209;28;20077;-64
2023/04/25 06:05:44;;;;;;;22.17;17.40;;;11.50;99.90;;;;;;4145015;28;20429;-73
2023/04/25 06:07:45;;;;;;;22.13;17.80;;;11.40;99.90;;;;;;4143918;28;20462;-70
2023/04/25 06:09:46;;;;;;;27.57;21.63;;;11.50;99.90;;;;;;4145651;28;20092;-69
2023/04/25 06:11:48;;;;;;;28.77;20.93;;;11.50;99.90;;;;;;4143782;28;20038;-63
2023/04/25 06:13:49;;;;;;;25.63;19.90;;;11.50;99.90;;;;;;4144801;28;20030;-66
2023/04/25 06:15:50;;;;;;;26.60;20.23;;;11.50;99.90;;;;;;4143254;28;20445;-64
2023/04/25 06:17:51;;;;;;;29.47;21.37;;;11.50;99.90;;;;;;4144390;28;20096;-68
2023/04/25 06:19:52;;;;;;;26.50;19.87;;;11.50;99.90;;;;;;4144536;28;20038;-64
2023/04/25 06:21:53;;;;;;;30.70;21.00;;;11.60;99.90;;;;;;4144332;28;20091;-70
2023/04/25 06:23:55;;;;;;;30.63;21.33;;;11.60;99.90;;;;;;4144003;28;20104;-70
2023/04/25 06:25:56;;;;;;;26.13;20.77;;;11.50;99.90;;;;;;4144029;28;20096;-70
2023/04/25 06:27:57;;;;;;;27.83;21.07;;;11.60;99.90;;;;;;4144941;28;20449;-71
2023/04/25 06:29:58;;;;;;;26.10;20.30;;;11.70;99.90;;;;;;4143326;28;20113;-70
2023/04/25 06:31:59;;;;;;;26.27;20.83;;;11.70;99.90;;;;;;4144830;28;20115;-69
2023/04/25 06:34:00;;;;;;;27.50;20.57;;;11.70;99.90;;;;;;4143708;28;20041;-71
2023/04/25 06:36:01;;;;;;;29.27;21.63;;;11.80;99.90;;;;;;4144964;28;20092;-74
2023/04/25 06:38:03;;;;;;;29.00;20.93;;;11.80;99.90;;;;;;4143778;28;20133;-69
2023/04/25 06:40:04;;;;;;;27.37;19.90;;;11.90;99.90;;;;;;4145368;28;20030;-64
2023/04/25 06:42:06;;;;;;;27.77;19.83;;;11.90;99.90;;;;;;4143881;28;20359;-70
2023/04/25 06:44:07;;;;;;;27.60;20.80;;;11.90;99.90;;;;;;4144361;28;20103;-71
2023/04/25 06:46:08;;;;;;;28.33;20.60;;;11.90;99.90;;;;;;4143023;28;20880;-70
2023/04/25 06:48:09;;;;;;;29.33;20.97;;;12.00;99.90;;;;;;4144613;28;20038;-73
2023/04/25 06:50:10;;;;;;;26.43;20.87;;;12.00;99.90;;;;;;4144028;28;20045;-73
2023/04/25 06:52:12;;;;;;;28.20;20.67;;;12.00;99.90;;;;;;4144010;28;20042;-68
2023/04/25 06:54:13;;;;;;;27.77;20.63;;;12.00;99.90;;;;;;4146323;28;20034;-72
2023/04/25 06:56:14;;;;;;;28.70;21.03;;;11.90;99.90;;;;;;4146721;28;20574;-74
2023/04/25 06:58:15;;;;;;;27.30;20.10;;;12.00;99.90;;;;;;4147796;28;20033;-73
2023/04/25 07:00:17;;;;;;;27.00;21.23;;;12.00;99.90;;;;;;4146738;28;20030;-62
2023/04/25 07:02:18;;;;;;;27.87;21.23;;;12.10;99.90;;;;;;4146798;28;20042;-63
2023/04/25 07:04:19;;;;;;;27.53;21.03;;;12.20;99.90;;;;;;4128895;28;20046;-64
2023/04/25 07:06:20;;;;;;;26.50;20.77;;;12.20;99.90;;;;;;4147350;28;20092;-73
2023/04/25 07:08:21;;;;;;;30.53;22.70;;;12.20;99.90;;;;;;4146638;28;20042;-72
2023/04/25 07:10:22;;;;;;;27.10;21.60;;;12.30;99.90;;;;;;4147995;28;20095;-72
2023/04/25 07:12:24;;;;;;;29.20;21.87;;;12.40;99.90;;;;;;4145731;28;20474;-69
2023/04/25 07:14:25;;;;;;;26.60;21.27;;;12.50;99.90;;;;;;4147480;28;20034;-70
2023/04/25 07:16:26;;;;;;;27.53;21.13;;;12.60;99.90;;;;;;4145353;28;20030;-74
2023/04/25 07:18:27;;;;;;;31.27;21.10;;;12.60;99.90;;;;;;4147054;28;20084;-73
2023/04/25 07:20:30;;;;;;;29.87;22.17;;;12.60;99.90;;;;;;4146449;28;20034;-72
2023/04/25 07:22:32;;;;;;;29.93;22.43;;;12.60;99.90;;;;;;4146348;28;20030;-73
2023/04/25 07:24:33;;;;;;;27.17;21.17;;;12.60;99.90;;;;;;4146874;28;20532;-73
2023/04/25 07:26:34;;;;;;;27.30;21.00;;;12.60;99.90;;;;;;4146384;28;20026;-70
2023/04/25 07:28:35;;;;;;;31.47;21.33;;;12.50;99.90;;;;;;4147188;28;20474;-70
2023/04/25 07:30:37;;;;;;;27.90;20.93;;;12.50;99.90;;;;;;4145818;28;20049;-64
2023/04/25 07:32:39;;;;;;;25.63;20.60;;;12.50;99.90;;;;;;4146035;28;20045;-73
2023/04/25 07:34:41;;;;;;;28.77;20.13;;;12.50;99.90;;;;;;4145777;28;20053;-61
2023/04/25 07:36:43;;;;;;;26.97;21.00;;;12.50;99.90;;;;;;4147204;28;20462;-71
2023/04/25 07:38:44;;;;;;;26.63;20.60;;;12.50;99.90;;;;;;4145441;28;20092;-71
2023/04/25 07:40:45;;;;;;;27.60;20.60;;;12.50;99.90;;;;;;4147469;28;20119;-69
2023/04/25 07:42:46;;;;;;;27.07;20.67;;;12.60;99.90;;;;;;4145906;28;20025;-67
2023/04/25 07:44:47;;;;;;;27.30;19.53;;;12.60;99.90;;;;;;4147327;28;20035;-71
2023/04/25 07:46:48;;;;;;;30.80;21.50;;;12.80;99.90;;;;;;4145957;28;20034;-70
2023/04/25 07:48:49;;;;;;;30.67;21.67;;;12.90;99.90;;;;;;4146662;28;20482;-72
2023/04/25 07:50:51;;;;;;;27.53;20.20;;;12.90;99.90;;;;;;4145577;28;20042;-71
2023/04/25 07:52:52;;;;;;;24.90;20.13;;;13.00;99.90;;;;;;4146599;28;20029;-72
2023/04/25 07:54:53;;;;;;;26.47;19.77;;;13.10;99.90;;;;;;4146536;28;20080;-68
2023/04/25 07:56:54;;;;;;;25.73;19.73;;;13.10;99.90;;;;;;4145929;28;20406;-69
2023/04/25 07:58:55;;;;;;;27.37;20.67;;;13.10;99.90;;;;;;4146209;28;20038;-65
2023/04/25 08:00:56;;;;;;;25.57;20.80;;;13.10;99.90;;;;;;4145055;28;20046;-64
2023/04/25 08:02:57;;;;;;;29.00;21.00;;;13.10;99.90;;;;;;4147055;28;20107;-69
2023/04/25 08:04:59;;;;;;;31.57;22.30;;;13.10;99.90;;;;;;4126968;28;20069;-66
2023/04/25 08:07:00;;;;;;;29.70;21.63;;;13.20;99.90;;;;;;4146916;28;20030;-65
2023/04/25 08:09:01;;;;;;;28.57;20.67;;;13.30;99.90;;;;;;4145594;28;20064;-62
2023/04/25 08:11:02;;;;;;;25.20;20.20;;;13.40;99.90;;;;;;4146732;28;20034;-62
2023/04/25 08:13:04;;;;;;;29.53;22.00;;;13.40;99.90;;;;;;4127894;28;20038;-68
2023/04/25 08:15:06;;;;;;;25.50;19.87;;;13.40;99.90;;;;;;4146450;28;20072;-69
2023/04/25 08:17:07;;;;;;;27.90;20.77;;;13.40;99.90;;;;;;4145032;28;20116;-72
2023/04/25 08:19:08;;;;;;;28.33;21.20;;;13.30;99.90;;;;;;4146365;28;20145;-65
2023/04/25 08:21:11;;;;;;;29.87;21.73;;;13.50;99.90;;;;;;4145834;28;20030;-65
2023/04/25 08:23:13;;;;;;;27.60;20.83;;;13.60;99.90;;;;;;4146396;28;20034;-66
2023/04/25 08:25:14;;;;;;;26.50;19.20;;;13.60;99.90;;;;;;4145963;28;20433;-69
2023/04/25 08:27:15;;;;;;;23.93;18.77;;;13.70;99.90;;;;;;4145712;28;20030;-67
2023/04/25 08:29:16;;;;;;;25.60;18.77;;;13.80;99.90;;;;;;4146020;28;20038;-66
2023/04/25 08:31:18;;;;;;;24.57;17.93;;;13.80;99.90;;;;;;4144897;28;20128;-70
2023/04/25 08:33:19;;;;;;;25.00;17.70;;;14.10;99.90;;;;;;4146281;28;20425;-70
2023/04/25 08:35:20;;;;;;;22.83;17.37;;;14.10;99.90;;;;;;4145144;28;20088;-69
2023/04/25 08:37:21;;;;;;;20.87;16.67;;;14.20;99.90;;;;;;4146278;28;20033;-65
2023/04/25 08:39:23;;;;;;;21.27;16.17;;;14.40;99.90;;;;;;4144883;28;20572;-70
2023/04/25 08:41:25;;;;;;;19.20;15.10;;;14.50;99.90;;;;;;4146110;28;20076;-63
2023/04/25 08:43:28;;;;;;;22.03;15.87;;;14.60;99.90;;;;;;4145045;28;20045;-68
2023/04/25 08:45:32;;;;;;;19.30;14.73;;;14.80;99.90;;;;;;4146346;28;20785;-66
2023/04/25 08:47:34;;;;;;;16.50;14.73;;;15.00;99.90;;;;;;4144862;28;20029;-71
2023/04/25 08:49:37;;;;;;;20.48;16.02;;;15.10;99.90;;;;;;4145840;28;20030;-71
2023/04/25 08:51:50;;;;;;;17.88;14.85;;;15.20;99.90;;;;;;4144363;28;20061;-64
2023/04/25 08:53:52;;;;;;;16.75;14.57;;;15.20;99.90;;;;;;4145318;28;20046;-73
2023/04/25 08:55:58;;;;;;;19.88;14.55;;;15.30;99.90;;;;;;4144942;28;20030;-67
2023/04/25 08:58:00;;;;;;;16.77;13.63;;;15.30;99.90;;;;;;4145483;28;20034;-65
2023/04/25 09:00:03;;;;;;;14.98;12.20;;;;;;;;;;4145119;28;20080;-71
2023/04/25 09:02:04;;;;;;;16.08;12.57;;;;;;;;;;4145121;28;20033;-67
2023/04/25 09:04:06;;;;;;;16.50;13.70;;;;;;;;;;4145417;28;20076;-68
2023/04/25 09:06:07;;;;;;;16.25;13.52;;;;;;;;;;4144907;28;20085;-67
2023/04/25 09:08:09;;;;;;;14.77;13.18;;;;;;;;;;4145547;28;20038;-67
2023/04/25 09:10:10;;;;;;;16.60;13.70;;;;;;;;;;4145109;28;20144;-69
2023/04/25 09:12:12;;;;;;;17.92;13.30;;;;;;;;;;4145838;28;20084;-70
2023/04/25 09:14:17;;;;;;;17.60;12.18;;;;;;;;;;4144595;28;20022;-67
2023/04/25 09:16:21;;;;;;;18.92;13.13;;;;;;;;;;4144080;28;20049;-64
2023/04/25 09:18:27;;;;;;;13.27;10.30;;;;;;;;;;4143997;28;20127;-69
2023/04/25 09:20:28;;;;;;;11.95;9.48;;;;;;;;;;4145640;28;20026;-73
2023/04/25 09:22:30;;;;;;;16.17;10.32;;;;;;;;;;4144400;28;20034;-65
2023/04/25 09:24:32;;;;;;;12.60;11.18;;;;;;;;;;4145677;28;20085;-70
2023/04/25 09:26:33;;;;;;;12.30;10.25;;;;;;;;;;4143852;28;20077;-66
2023/04/25 09:28:35;;;;;;;10.50;7.78;;;;;;;;;;4145480;28;20026;-64
2023/04/25 09:30:37;;;;;;;7.57;6.78;;;;;;;;;;4143964;28;20535;-70
2023/04/25 09:32:38;;;;;;;8.50;6.75;;;;;;;;;;4144855;28;20099;-68
2023/04/25 09:34:44;;;;;;;8.15;6.82;;;;;;;;;;4144403;28;20046;-65
2023/04/25 09:36:46;;;;;;;7.82;6.97;;;;;;;;;;4144845;28;20425;-69
2023/04/25 09:38:47;;;;;;;10.00;7.07;;;;;;;;;;4144473;28;20061;-66
2023/04/25 09:40:52;;;;;;;7.32;5.57;;;;;;;;;;4144789;28;20033;-61
2023/04/25 09:42:53;;;;;;;4.57;4.13;;;;;;;;;;4144521;28;20112;-68
2023/04/25 09:44:55;;;;;;;4.80;4.10;;;;;;;;;;4143926;28;20030;-72
2023/04/25 09:46:57;;;;;;;4.75;3.50;;;;;;;;;;4145212;28;20038;-72
2023/04/25 09:48:58;;;;;;;3.25;2.95;;;;;;;;;;4144005;28;20120;-69
2023/04/25 09:51:06;;;;;;;4.60;3.83;;;;;;;;;;4144840;28;20026;-71
2023/04/25 09:53:08;;;;;;;3.28;2.97;;;;;;;;;;4126207;28;20046;-69
2023/04/25 09:55:09;;;;;;;3.50;3.20;;;;;;;;;;4144980;28;20033;-67
2023/04/25 09:57:13;;;;;;;2.88;2.58;;;;;;;;;;4143840;28;20022;-66
2023/04/25 09:59:15;;;;;;;5.18;3.30;;;;;;;;;;4145127;28;20033;-70
2023/04/25 10:01:17;;;;;;;3.05;2.75;;;;;;;;;;4143818;28;20026;-69
2023/04/25 10:03:19;;;;;;;3.67;3.38;;;;;;;;;;4144861;28;20096;-62
2023/04/25 10:05:21;;;;;;;2.47;2.28;;;;;;;;;;4143856;28;20037;-64
2023/04/25 10:07:25;;;;;;;4.05;2.60;;;;;;;;;;4144430;28;20030;-67
2023/04/25 10:09:32;;;;;;;2.55;2.35;;;;;;;;;;4143712;28;20549;-65
2023/04/25 10:11:33;;;;;;;3.40;2.42;;;;;;;;;;4144897;28;20422;-65
2023/04/25 10:13:35;;;;;;;3.03;2.55;;;;;;;;;;4144159;28;20482;-66
2023/04/25 10:15:37;;;;;;;3.95;2.60;;;;;;;;;;4144237;28;20474;-72
2023/04/25 10:17:39;;;;;;;2.20;1.90;;;;;;;;;;4143682;28;20446;-68
2023/04/25 10:19:40;;;;;;;2.50;2.30;;;;;;;;;;4143766;28;20042;-71
2023/04/25 10:21:46;;;;;;;2.55;2.30;;;;;;;;;;4144716;28;20099;-64
2023/04/25 10:23:48;;;;;;;2.55;2.25;;;;;;;;;;4143749;28;20038;-62
2023/04/25 10:25:51;;;;;;;1.92;1.83;;;;;;;;;;4144455;28;20092;-69
2023/04/25 10:27:53;;;;;;;1.52;1.42;;;;;;;;;;4143585;28;20038;-69
2023/04/25 10:30:04;;;;;;;1.63;1.52;;;;;;;;;;4148191;28;20441;-63